Farmington, NM

4:37 AM MDT on September 17, 2014 (GMT -0600)
Cortez Municipal | Change Station
CLOSE
Current Station
Airport
Location: Cortez,
Elevation: 5915 ft
Nearby Weather Stations

Elev 5915 ft 37.31 °N, 108.63 °W | Updated 44 minutes ago

Partly Cloudy
Partly Cloudy
53 °F
Feels Like 53 °F
N
5
Wind Variable Wind from ENE

Today
High -- | Low -- °F
--% Chance of Precip.
Yesterday
High -- | Low -- °F
Precip. -- in
6:56 AM 7:17 PM
Last Quarter, 37% visible
Pressure 29.96 in
Visibility 10.0 miles
Clouds Clear
Dew Point 48 °F
Humidity 83%
Rainfall 0.00 in
Snow Depth 0 in , 1 in , 0 in
UV 0 out of 12
Pollen 6.50 out of 12
Air Quality Not available.
Flu Activity Not available.
METAR KCEZ 170953Z AUTO 07004KT 10SM CLR 12/09 A3017 RMK AO2 SLP143 T01170089

More Conditions Fewer Conditions

Pressure 29.96 in
Visibility 10.0 miles
Clouds Clear
Dew Point 48 °F
Humidity 83%
Rainfall 0.00 in
Snow Depth 0 in , 1 in , 0 in
UV 0 out of 12
Pollen 6.50 out of 12
Air Quality Not available.
Flu Activity Not available.
METAR KCEZ 170953Z AUTO 07004KT 10SM CLR 12/09 A3017 RMK AO2 SLP143 T01170089

More Conditions Fewer Conditions

10-Day Weather Forecast

Almanac

Astronomy

Sep. 17, 2014 Rise Set
Actual Time 6:56 AM MDT 7:17 PM MDT
Civil Twilight 6:30 AM MDT 7:42 PM MDT
Nautical Twilight 6:00 AM MDT 8:13 PM MDT
Astronomical Twilight 5:29 AM MDT 8:44 PM MDT
Moon 1:05 AM MDT 3:22 PM MDT
Length of Visible Light 13h 12m
Length of Day
12h 20m
Tomorrow will be 2m 19s shorter.
Last Quarter, 37% of the Moon is Illuminated
Today
Last Quarter
Sep 24
New
Oct 1
First Quarter
Oct 8
Full
Oct 15
Last Quarter

Today's Extremes

State Highs State Lows

Community

WunderPhotos

Upload Photos

1,753,993 photos uploaded!

Nearby

Snow Depth

Station Depth Elevation
Frisco Divide 0 in 8000 ft
Wesner Springs 3 in 11120 ft
Silver Creek Divide 1 in 9000 ft
Sierra Blanca 1 in 10280 ft
Senorita Divide #2 0 in 8600 ft

Earthquake Activity

City Distance Mag. Time & Date
No recent earthquake activity has been reported nearby.
Minimum magnitude displayed is 2.5.

Coastal Water Temperatures

Place Temperature
No Stations Reporting

Nearby Weather Stations